Flight Track Log - Related Links

Times and Time Zones

All times are in EDT time to prevent confusion due to time zone crossing. See the ASQ5850 flight status page for this flight to view local times or setup timezone preferences in your user account.

Time Position Orientation Groundspeed Altitude Reporting Facility
EDT Latitude Longitude Course Direction KTS MPH feet Rate Location/Type
Thu 09:56:32 AM 36.1167 -86.6833 158° South 164 189 1,100  Level Nashville TRACON
Thu 09:57:50 AM 36.0500 -86.6500 158° South 187 215 3,600 1,826 Climbing Nashville TRACON
Thu 09:58:50 AM 36.0167 -86.6000 129° Southeast 245 282 5,300 1,722 Climbing Nashville TRACON
Thu 09:59:38 AM 36.0000 -86.5333 107° East 266 306 6,700 1,899 Climbing Nashville TRACON
Thu 10:01:09 AM 36.0544 -86.4211 59° Northeast 313 360 9,700 1,629 Climbing Memphis Center
Thu 10:02:09 AM 36.0950 -86.3242 63° Northeast 296 341 10,800 1,000 Climbing Memphis Center
Thu 10:03:09 AM 36.1394 -86.2192 62° Northeast 317 365 11,700 1,210 Climbing Memphis Center
Thu 10:04:08 AM 36.1839 -86.1117 63° Northeast 331 381 13,200 1,462 Climbing Memphis Center
Thu 10:05:08 AM 36.2303 -86.0036 62° Northeast 342 394 14,600 1,289 Climbing Memphis Center
Thu 10:06:09 AM 36.2783 -85.8956 61° Northeast 351 404 15,800 1,200 Climbing Memphis Center
Thu 10:07:08 AM 36.3264 -85.7847 62° Northeast 357 411 17,000 1,109 Climbing Memphis Center
Thu 10:08:08 AM 36.3786 -85.6761 59° Northeast 362 417 18,000 900 Climbing Memphis Center
Thu 10:09:08 AM 36.4328 -85.5647 59° Northeast 367 422 18,800 950 Climbing Memphis Center
Thu 10:10:08 AM 36.4867 -85.4478 60° Northeast 372 428 19,900 1,134 Climbing Memphis Center
Thu 10:11:15 AM 36.5428 -85.3333 59° Northeast 386 444 21,200 1,163 Climbing Indianapolis Center
Thu 10:12:17 AM 36.5958 -85.2194 60° Northeast 381 438 22,400 1,113 Climbing Indianapolis Center
Thu 10:13:19 AM 36.6478 -85.0697 67° East 390 449 23,500 960 Climbing Indianapolis Center
Thu 10:14:22 AM 36.6886 -84.9400 69° East 398 458 24,400 960 Climbing Indianapolis Center
Thu 10:15:24 AM 36.7275 -84.8108 69° East 398 458 25,500 1,065 Climbing Indianapolis Center
Thu 10:16:26 AM 36.7661 -84.6817 70° East 397 457 26,600 1,016 Climbing Indianapolis Center
Thu 10:17:28 AM 36.8050 -84.5528 69° East 396 456 27,600 871 Climbing Indianapolis Center
Thu 10:18:30 AM 36.8456 -84.4172 69° East 392 451 28,400 774 Climbing Indianapolis Center
Thu 10:19:32 AM 36.8864 -84.2864 69° East 401 461 29,200 968 Climbing Indianapolis Center
Thu 10:20:34 AM 36.9242 -84.1558 70° East 400 460 30,400 1,210 Climbing Indianapolis Center
Thu 10:21:36 AM 36.9633 -84.0269 69° East 396 456 31,700 1,258 Climbing Indianapolis Center
Thu 10:22:38 AM 37.0058 -83.8817 70° East 382 440 33,000 629 Climbing Indianapolis Center
Thu 10:23:40 AM 37.0464 -83.7506 69° East 411 473 33,000  Level Indianapolis Center
Thu 10:24:42 AM 37.0867 -83.6100 70° East 430 495 33,000  Level Indianapolis Center
Thu 10:25:44 AM 37.1289 -83.4644 70° East 443 510 33,000  Level Indianapolis Center
Thu 10:26:46 AM 37.1717 -83.3167 70° East 446 513 33,000  Level Indianapolis Center
Thu 10:27:48 AM 37.2164 -83.1669 69° East 453 521 33,000  Level Indianapolis Center
Thu 10:28:50 AM 37.2669 -82.9911 70° East 454 522 33,000  Level Indianapolis Center
Thu 10:29:52 AM 37.3086 -82.8406 71° East 452 520 33,000  Level Indianapolis Center
Thu 10:30:54 AM 37.3519 -82.6911 70° East 451 519 33,000  Level Indianapolis Center
Thu 10:31:56 AM 37.3931 -82.5439 71° East 446 513 33,000  Level Indianapolis Center
Thu 10:32:58 AM 37.4344 -82.3961 71° East 447 514 33,000  Level Indianapolis Center
Thu 10:34:00 AM 37.4764 -82.2472 70° East 449 517 33,000  Level Indianapolis Center
Thu 10:35:02 AM 37.5189 -82.0975 70° East 453 521 33,000  Level Indianapolis Center
Thu 10:36:04 AM 37.5675 -81.9219 71° East 454 522 33,000  Level Indianapolis Center
Thu 10:37:06 AM 37.6072 -81.7692 72° East 456 525 33,000  Level Indianapolis Center
Thu 10:38:08 AM 37.6489 -81.6206 70° East 451 519 33,000  Level Indianapolis Center
Thu 10:39:10 AM 37.6894 -81.4658 72° East 440 506 33,000  Level Indianapolis Center
Thu 10:40:13 AM 37.7267 -81.3286 71° East 428 493 33,000  Level Indianapolis Center
Thu 10:40:35 AM 37.7383 -81.2722 75° East 430 495 33,000  Level Washington Center
Thu 10:41:36 AM 37.7756 -81.1436 70° East 430 495 33,000  Level Washington Center
Thu 10:42:34 AM 37.8261 -80.9975 66° East 430 495 33,000  Level Washington Center
Thu 10:43:35 AM 37.8761 -80.8564 66° East 440 506 33,000  Level Washington Center
Thu 10:44:35 AM 37.9342 -80.7233 61° Northeast 440 506 33,000  Level Washington Center
Thu 10:45:35 AM 38.0031 -80.5753 59° Northeast 434 499 33,000  Level Washington Center
Thu 10:46:35 AM 38.0625 -80.4472 59° Northeast 424 488 33,000  Level Washington Center
Thu 10:47:35 AM 38.1239 -80.3194 59° Northeast 424 488 33,000  Level Washington Center
Thu 10:48:35 AM 38.1833 -80.1856 61° Northeast 424 488 33,000 -303 Level Washington Center
Thu 10:49:34 AM 38.2447 -80.0519 60° Northeast 429 494 32,400 -655 Descending Washington Center
Thu 10:50:34 AM 38.2992 -79.9308 60° Northeast 429 494 31,700 -1,091 Descending Washington Center
Thu 10:51:35 AM 38.3581 -79.7967 61° Northeast 429 494 30,200 -1,587 Descending Washington Center
Thu 10:52:35 AM 38.4214 -79.6597 59° Northeast 429 494 28,500 -2,182 Descending Washington Center
Thu 10:53:36 AM 38.4822 -79.5197 61° Northeast 434 499 25,800 -2,213 Descending Washington Center
Thu 10:54:37 AM 38.5367 -79.3847 63° Northeast 434 499 24,000 -1,729 Descending Washington Center
Thu 10:55:34 AM 38.5708 -79.2269 74° East 424 488 22,400 -1,881 Descending Washington Center
Thu 10:56:35 AM 38.5961 -79.0769 78° East 419 482 20,300 -2,115 Descending Washington Center
Thu 10:57:36 AM 38.6231 -78.9372 76° East 414 476 18,100 -1,869 Descending Washington Center
Thu 10:58:37 AM 38.6517 -78.7978 75° East 409 471 16,500 -1,983 Descending Washington Center
Thu 10:59:34 AM 38.6761 -78.6658 77° East 404 465 14,200 -2,359 Descending Washington Center
Thu 11:00:34 AM 38.7000 -78.5392 76° East 385 443 11,900 -1,587 Descending Washington Center
Thu 11:01:35 AM 38.7236 -78.4231 75° East 357 411 11,000 -787 Descending Washington Center
Thu 11:02:36 AM 38.7483 -78.3519 66° East 317 365 10,300 -992 Descending Washington Center
Thu 11:03:36 AM 38.8106 -78.2692 46° Northeast 280 322 9,000 -712 Descending Washington Center
Thu 11:04:34 AM 38.8581 -78.1936 51° Northeast 275 316 8,900 -958 Descending Washington Center
Thu 11:05:35 AM 38.8808 -78.1036 72° East 263 303 7,100 -1,240 Descending Washington Center
Thu 11:06:35 AM 38.9014 -78.0164 73° East 256 295 6,400 -545 Descending Washington Center
Thu 11:07:36 AM 38.9219 -77.9317 73° East 251 289 6,000 -198 Descending Washington Center
Thu 11:08:36 AM 38.9442 -77.8522 70° East 246 283 6,000  Level Washington Center
Thu 11:09:34 AM 38.9647 -77.7542 75° East 246 283 6,000  Level Washington Center
Thu 11:11:31 AM 38.9000 -77.6000 118° Southeast 258 297 6,000 -373 Level Potomac TRACON
Thu 11:12:31 AM 38.8500 -77.5667 153° Southeast 236 272 4,900 -1,100 Descending Potomac TRACON
Thu 11:13:31 AM 38.7833 -77.5667 180° South 217 250 3,800 -950 Descending Potomac TRACON
Thu 11:14:31 AM 38.8000 -77.5000 72° East 184 212 3,000 -700 Descending Potomac TRACON
Thu 11:15:31 AM 38.8333 -77.4667 38° Northeast 201 231 2,400 -750 Descending Potomac TRACON
Thu 11:16:31 AM 38.8833 -77.4667 360° North 151 174 1,500 -789 Descending Potomac TRACON
Thu 11:17:25 AM 38.9167 -77.4667 360° North 140 161 900 -667 Descending Potomac TRACON
Thu 11:19:00 AM 38.9474 -77.4599 North  Level Estimated
Thu 11:26:00 AM 38.9474 -77.4599 159° South  Level Estimated

Login

Don't have an account? Register now (free) for customized features, flight alerts, and more!